Portada
METAR-TAF:

METAR-TAF

Aeroports :

Malaca, Malàisia

latitud: 02-16N, longitud: 102-15E, altitud: 11 m

Observació

L'informe es va fer fa 54 minuts, a les 12:00 UTC
Vent 2 kt amb direcció variable
Temperatura 29°C
Humitat 84%
Pressió 1006 hPa
Visibilitat 10 km o més
Escasses núvols a una alçada de 2800 ft

METAR: WMKM 141200Z VRB02KT 9999 FEW028 29/26 Q1006

Hora: 20:54 (12:54 UTC)

Pronòstic

L'informe es va fer fa 1 hora i 54 minuts, a les 11:00 UTC
Pronòstic vàlid del 14 a les 12 UTC al 15 a les 12 UTC
Vent 6 kt del Oest/Sud-Oest
Visibilitat 10 km o més
Escasses núvols a una alçada de 2800 ft
Temporalment
l' 14 a les 20 UTC al 14 a les 24 UTC
Visibilitat: 3000 m
Escasses núvols a una alçada de 1700 ft, Cumulonimbus.
Núvols disperses a una alçada de 2000 ft
tempesta, pluja

TAF: WMKM 141100Z 1412/1512 25006KT 9999 FEW028 TEMPO 1420/1424 3000 TSRA FEW017CB SCT020

Observacions i pronòstics meteorològics de més de 4000 aeroports (METAR i TAF).

Les estacions disponibles són els punts grocs i vermells al mapa.

Posi el ratolí al punt desitjat per veure el nom de l'estació.

Feu clic per veure les observacions i els pronòstics meteorològics.

Per canviar el mapa: feu clic els botons verds amb una creu de color negre per apropar; al botó verd amb un guió per allunyar la imatge; o en les fletxes verdes per a mapes adjacents.


METAR-TAF: